Time;durP1;ratioP1;P1;durP2;ratioP2;P2;SDS_P1;SDS_P2;PMS_P1;PMS_P2;Temp;Humidity;BMP_temperature;BMP_pressure;BME280_temperature;BME280_humidity;BME280_pressure;Samples;Min_cycle;Max_cycle;Signal;HPM_P1;HPM_P2
2023/08/31 00:01:10;;;;;;;3.92;1.20;;;;;;;19.78;67.13;100159.00;5102267;28;20047;-81
2023/08/31 00:04:04;;;;;;;3.63;1.13;;;;;;;19.79;66.91;100151.53;5101726;28;20039;-81
2023/08/31 00:06:59;;;;;;;5.68;1.33;;;;;;;19.79;67.45;100154.28;5102321;28;20051;-81
2023/08/31 00:09:53;;;;;;;4.22;1.25;;;;;;;19.67;67.89;100154.63;5103810;28;20043;-81
2023/08/31 00:12:49;;;;;;;6.13;1.27;;;;;;;19.60;68.50;100160.94;5090208;28;20059;-81
2023/08/31 00:15:41;;;;;;;3.97;1.30;;;;;;;19.47;68.97;100146.69;5101545;28;20043;-80
2023/08/31 00:18:35;;;;;;;12.52;1.73;;;;;;;19.51;68.66;100147.50;5102440;28;20063;-80
2023/08/31 00:21:30;;;;;;;1.48;0.85;;;;;;;19.57;69.05;100151.47;5089364;28;20046;-80
2023/08/31 00:24:28;;;;;;;1.55;1.00;;;;;;;19.43;69.49;100145.09;5107173;28;20051;-80
2023/08/31 00:27:22;;;;;;;3.13;1.30;;;;;;;19.59;68.89;100146.34;5100833;28;20047;-80
2023/08/31 00:30:18;;;;;;;3.38;1.15;;;;;;;19.68;68.24;100140.47;5101334;28;20043;-79
2023/08/31 00:33:10;;;;;;;2.00;0.93;;;;;;;19.64;68.55;100137.72;5082346;28;20059;-79
2023/08/31 00:36:07;;;;;;;5.40;1.05;;;;;;;19.71;68.17;100139.66;5083501;28;20055;-79
2023/08/31 00:39:00;;;;;;;5.60;1.00;;;;;;;19.49;68.55;100138.84;5074268;28;20524;-79
2023/08/31 00:41:57;;;;;;;4.20;1.15;;;;;;;19.46;68.93;100142.38;5085327;28;20056;-79
2023/08/31 00:44:49;;;;;;;2.10;1.13;;;;;;;19.47;68.72;100141.19;5082627;28;20047;-79
2023/08/31 00:47:43;;;;;;;2.90;1.30;;;;;;;19.54;68.87;100146.75;5083105;28;20052;-79
2023/08/31 00:50:35;;;;;;;2.47;0.98;;;;;;;19.72;68.54;100143.22;5070015;28;20039;-81
2023/08/31 00:53:27;;;;;;;3.13;0.82;;;;;;;19.78;67.47;100138.91;5089407;28;20051;-79
2023/08/31 00:56:22;;;;;;;1.65;0.80;;;;;;;19.73;67.45;100142.03;5090228;28;20087;-79
2023/08/31 00:59:14;;;;;;;1.85;0.73;;;;;;;19.75;67.40;100145.22;5084830;28;20047;-81
2023/08/31 01:02:13;;;;;;;2.38;0.77;;;;;;;19.69;67.44;100141.25;5086261;28;20047;-82
2023/08/31 01:05:14;;;;;;;5.18;1.33;;;;;;;19.66;67.20;100148.31;5082830;28;20422;-81
2023/08/31 01:08:33;;;;;;;1.38;0.90;;;;;;;19.79;67.34;100151.53;5081065;28;20052;-82
2023/08/31 01:12:00;;;;;;;2.72;0.88;;;;;;;19.60;67.24;100158.97;5083038;28;20055;-82
2023/08/31 01:14:59;;;;;;;1.30;0.70;;;;;;;20.12;67.18;100153.13;5086829;28;20423;-82
2023/08/31 01:17:54;;;;;;;1.88;0.60;;;;;;;20.63;65.54;100163.81;5083655;28;20047;-82
2023/08/31 01:20:55;;;;;;;1.52;0.50;;;;;;;21.00;64.17;100161.38;5083734;28;20043;-82
2023/08/31 01:23:57;;;;;;;2.25;0.90;;;;;;;21.14;62.68;100166.91;5083774;28;20250;-82
2023/08/31 01:26:47;;;;;;;5.28;1.60;;;;;;;20.68;63.72;100171.69;5082622;28;20044;-82
2023/08/31 01:29:43;;;;;;;1.77;0.40;;;;;;;20.75;64.28;100166.97;5086904;28;20055;-82
2023/08/31 01:32:33;;;;;;;0.63;0.52;;;;;;;20.92;63.18;100174.44;5083020;28;20044;-82
2023/08/31 01:35:25;;;;;;;3.00;1.20;;;;;;;20.97;63.11;100175.22;5083999;28;20048;-82
2023/08/31 01:38:21;;;;;;;2.70;0.55;;;;;;;21.26;62.80;100172.00;5082220;28;20047;-82
2023/08/31 01:41:18;;;;;;;9.38;1.35;;;;;;;21.36;61.94;100177.91;5081929;28;20048;-82
2023/08/31 01:44:14;;;;;;;2.58;1.17;;;;;;;20.91;61.91;100178.41;5083391;28;20043;-82
2023/08/31 01:47:10;;;;;;;5.55;1.20;;;;;;;20.80;63.07;100177.63;5069979;28;20055;-82
2023/08/31 01:50:02;;;;;;;3.92;1.10;;;;;;;20.94;62.94;100185.09;5083609;28;20048;-80
2023/08/31 01:52:55;;;;;;;5.95;0.70;;;;;;;21.30;62.11;100192.13;5084047;28;20048;-81
2023/08/31 01:55:50;;;;;;;1.90;0.52;;;;;;;21.55;61.73;100182.94;5083859;28;20055;-80
2023/08/31 01:58:45;;;;;;;1.60;0.95;;;;;;;21.73;60.95;100180.91;5087112;28;20048;-80
2023/08/31 02:01:37;;;;;;;2.28;0.68;;;;;;;21.88;60.44;100187.94;5084270;28;20044;-81
2023/08/31 02:04:31;;;;;;;2.92;0.77;;;;;;;21.97;59.71;100193.03;5087446;28;20055;-81
2023/08/31 02:07:26;;;;;;;5.55;0.60;;;;;;;22.02;59.72;100193.41;5085895;28;20063;-81
2023/08/31 02:10:21;;;;;;;3.72;0.60;;;;;;;22.08;59.16;100200.09;5082095;28;20070;-81
2023/08/31 02:13:13;;;;;;;6.35;1.50;;;;;;;22.12;58.92;100202.84;5083530;28;20051;-82
2023/08/31 02:16:07;;;;;;;5.10;0.70;;;;;;;22.18;58.38;100204.78;5085803;28;20047;-81
2023/08/31 02:19:03;;;;;;;1.85;0.50;;;;;;;22.22;58.12;100207.50;5089123;28;20052;-81
2023/08/31 02:21:57;;;;;;;2.17;0.50;;;;;;;22.26;58.19;100201.94;5088057;28;20059;-81
2023/08/31 02:24:52;;;;;;;1.95;0.60;;;;;;;22.28;58.03;100213.41;5083642;28;20048;-82
2023/08/31 02:27:44;;;;;;;2.70;0.40;;;;;;;22.28;57.84;100213.41;5085505;28;20051;-81
2023/08/31 02:30:36;;;;;;;1.20;0.35;;;;;;;22.32;57.62;100214.16;5084176;28;20047;-81
2023/08/31 02:33:31;;;;;;;1.20;0.40;;;;;;;22.33;57.37;100212.97;5088918;28;20048;-81
2023/08/31 02:36:25;;;;;;;2.03;0.40;;;;;;;22.34;57.37;100209.81;5085455;28;20048;-82
2023/08/31 02:39:20;;;;;;;1.13;0.50;;;;;;;22.35;57.77;100205.06;5083451;28;20044;-81
2023/08/31 02:42:15;;;;;;;4.05;1.08;;;;;;;22.36;57.41;100206.63;5088711;28;20047;-81
2023/08/31 02:45:11;;;;;;;4.35;1.08;;;;;;;22.35;57.28;100208.59;5084158;28;20051;-81
2023/08/31 02:48:06;;;;;;;2.50;0.60;;;;;;;22.38;57.36;100207.00;5086993;28;20055;-81
2023/08/31 02:50:58;;;;;;;2.28;0.40;;;;;;;22.38;57.49;100209.78;5104245;28;20047;-82
2023/08/31 02:53:53;;;;;;;2.85;0.45;;;;;;;22.40;57.34;100210.16;5103653;28;20043;-82
2023/08/31 02:56:47;;;;;;;0.85;0.50;;;;;;;22.40;57.32;100210.16;5108596;28;20043;-82
2023/08/31 02:59:42;;;;;;;2.60;0.45;;;;;;;22.41;57.50;100208.94;5102457;28;20051;-82
2023/08/31 03:02:36;;;;;;;1.20;0.40;;;;;;;22.36;57.52;100223.25;5102896;28;20048;-82
2023/08/31 03:05:26;;;;;;;4.18;0.55;;;;;;;22.31;57.39;100221.69;5105866;28;20047;-82
2023/08/31 03:08:21;;;;;;;4.47;0.50;;;;;;;22.34;57.46;100218.13;5090598;28;20067;-82
2023/08/31 03:11:14;;;;;;;2.00;0.88;;;;;;;22.38;57.33;100215.31;5103060;28;20047;-82
2023/08/31 03:14:09;;;;;;;1.38;0.50;;;;;;;22.40;57.18;100210.16;5105071;28;20145;-82
2023/08/31 03:17:03;;;;;;;2.28;0.90;;;;;;;22.41;57.02;100211.72;5088578;28;20047;-82
2023/08/31 03:19:58;;;;;;;4.95;0.50;;;;;;;22.40;56.99;100216.47;5102536;28;20035;-82
2023/08/31 03:22:53;;;;;;;0.57;0.50;;;;;;;22.42;56.87;100224.38;5105066;28;20046;-82
2023/08/31 03:25:45;;;;;;;1.77;0.28;;;;;;;22.43;56.97;100223.19;5102335;28;20043;-82
2023/08/31 03:28:39;;;;;;;2.55;0.32;;;;;;;22.43;56.76;100232.31;5103399;28;20051;-82
2023/08/31 03:31:34;;;;;;;0.75;0.40;;;;;;;22.42;56.66;100236.25;5103978;28;20043;-82
2023/08/31 03:34:30;;;;;;;;;;;;;;;22.46;56.65;100241.75;5107000;28;20043;-82
2023/08/31 03:37:25;;;;;;;1.20;0.45;;;;;;;22.42;56.71;100243.78;5104611;28;19912;-82
2023/08/31 03:40:21;;;;;;;8.88;0.95;;;;;;;22.42;56.74;100244.56;5104231;28;20529;-82
2023/08/31 03:43:16;;;;;;;1.05;0.43;;;;;;;22.42;56.25;100250.13;5103215;28;20051;-82
2023/08/31 03:46:11;;;;;;;3.42;1.00;;;;;;;22.42;56.50;100252.09;5103389;28;20050;-82
2023/08/31 03:49:01;;;;;;;0.47;0.40;;;;;;;22.41;56.15;100251.31;5105467;28;20514;-82
2023/08/31 03:51:53;;;;;;;4.80;0.63;;;;;;;22.44;56.35;100255.25;5088435;28;20055;-83
2023/08/31 03:54:47;;;;;;;1.17;0.60;;;;;;;22.44;56.13;100258.81;5101651;28;20051;-83
2023/08/31 03:57:42;;;;;;;0.45;0.20;;;;;;;22.44;56.36;100261.59;5106016;28;20051;-81
2023/08/31 04:00:42;;;;;;;1.67;0.75;;;;;;;22.46;56.37;100258.41;5087049;28;20051;-83
2023/08/31 04:03:34;;;;;;;7.35;0.63;;;;;;;22.44;56.52;100258.03;5102269;28;20047;-83
2023/08/31 04:06:28;;;;;;;1.90;0.50;;;;;;;22.46;56.11;100269.47;5088692;28;20264;-83
2023/08/31 04:09:20;;;;;;;;;;;;;;;22.46;56.07;100267.50;5106088;28;20047;-82
2023/08/31 04:12:15;;;;;;;3.65;0.40;;;;;;;22.46;56.27;100275.03;5089881;28;19912;-81
2023/08/31 04:15:11;;;;;;;6.13;0.47;;;;;;;22.46;56.42;100280.56;5101139;28;20047;-82
2023/08/31 04:18:05;;;;;;;3.10;0.40;;;;;;;22.45;56.23;100276.25;5105395;28;20043;-82
2023/08/31 04:21:00;;;;;;;4.40;0.47;;;;;;;22.45;56.24;100279.78;5102861;28;20114;-82
2023/08/31 04:23:54;;;;;;;17.35;0.80;;;;;;;22.40;56.03;100279.44;5104048;28;20043;-82
2023/08/31 04:26:49;;;;;;;1.38;0.57;;;;;;;22.45;56.06;100295.63;5105664;28;20047;-81
2023/08/31 04:29:44;;;;;;;1.15;0.38;;;;;;;22.46;56.08;100292.44;5102157;28;20426;-81
2023/08/31 04:32:36;;;;;;;1.38;0.32;;;;;;;22.47;55.97;100296.00;5103508;28;20532;-83
2023/08/31 04:35:31;;;;;;;2.05;0.60;;;;;;;22.46;56.04;100294.41;5100649;28;20043;-82
2023/08/31 04:38:25;;;;;;;1.20;0.50;;;;;;;22.45;56.21;100301.94;5102467;28;20051;-82
2023/08/31 04:41:20;;;;;;;5.72;0.70;;;;;;;22.43;55.80;100298.00;5099645;28;20526;-82
2023/08/31 04:44:14;;;;;;;4.40;0.90;;;;;;;22.42;56.13;100302.75;5101838;28;20047;-83
2023/08/31 04:47:06;;;;;;;4.65;0.47;;;;;;;22.43;55.71;100295.25;5099858;28;20051;-84
2023/08/31 04:49:59;;;;;;;5.22;0.95;;;;;;;21.84;56.79;100308.19;5091786;28;20051;-82
2023/08/31 04:52:48;;;;;;;3.92;1.02;;;;;;;21.50;58.15;100305.91;5101791;28;20039;-83
2023/08/31 04:55:43;;;;;;;2.08;0.77;;;;;;;21.75;58.43;100305.81;5102278;28;20058;-82
2023/08/31 04:58:38;;;;;;;12.38;1.48;;;;;;;21.65;57.82;100312.19;5097230;28;20051;-83
2023/08/31 05:01:31;;;;;;;;;;;;;;;21.21;59.24;100321.75;5105362;28;20423;-83
2023/08/31 05:04:23;;;;;;;9.77;1.63;;;;;;;20.84;60.92;100318.56;5089781;28;19912;-81
2023/08/31 05:07:17;;;;;;;3.05;1.48;;;;;;;20.63;61.82;100318.53;5090453;28;20048;-83
2023/08/31 05:10:13;;;;;;;6.38;1.30;;;;;;;20.69;61.96;100325.28;5107341;28;20046;-81
2023/08/31 05:13:08;;;;;;;7.88;1.50;;;;;;;20.76;61.93;100326.09;5102438;28;20038;-83
2023/08/31 05:16:03;;;;;;;8.60;1.60;;;;;;;20.74;61.33;100335.94;5103595;28;20415;-83
2023/08/31 05:18:57;;;;;;;4.43;0.98;;;;;;;20.56;62.84;100333.16;5102556;28;20043;-83
2023/08/31 05:21:52;;;;;;;8.43;2.20;;;;;;;20.57;62.99;100336.72;5104008;28;20051;-83
2023/08/31 05:24:47;;;;;;;4.28;2.05;;;;;;;20.58;63.16;100341.81;5093804;28;20047;-82
2023/08/31 05:27:41;;;;;;;10.73;1.77;;;;;;;20.28;64.75;100344.09;5101624;28;20044;-84
2023/08/31 05:30:33;;;;;;;2.97;1.33;;;;;;;20.28;64.90;100342.13;5096274;28;20119;-83
2023/08/31 05:33:28;;;;;;;3.08;1.38;;;;;;;20.43;64.45;100346.53;5095379;28;20046;-84
2023/08/31 05:36:23;;;;;;;3.83;0.88;;;;;;;20.56;64.59;100346.19;5096706;28;20042;-83
2023/08/31 05:39:18;;;;;;;3.55;1.17;;;;;;;20.67;64.19;100355.28;5102462;28;20039;-84
2023/08/31 05:42:13;;;;;;;4.68;1.10;;;;;;;20.74;63.84;100350.53;5089820;28;20047;-83
2023/08/31 05:45:07;;;;;;;4.07;1.23;;;;;;;20.67;64.22;100360.81;5102682;28;20043;-83
2023/08/31 05:48:02;;;;;;;4.32;1.40;;;;;;;20.68;63.90;100367.91;5104605;28;20047;-84
2023/08/31 05:50:58;;;;;;;11.27;1.73;;;;;;;20.43;65.73;100368.63;5092226;28;20118;-83
2023/08/31 05:53:53;;;;;;;4.15;1.42;;;;;;;20.50;65.12;100378.91;5088481;28;20047;-83
2023/08/31 05:56:47;;;;;;;8.50;1.50;;;;;;;20.43;64.14;100379.69;5106901;28;20510;-83
2023/08/31 05:59:39;;;;;;;5.50;1.27;;;;;;;20.32;65.04;100389.91;5107169;28;20070;-82
2023/08/31 06:02:34;;;;;;;5.05;1.83;;;;;;;20.07;65.44;100384.25;5103532;28;20146;-84
2023/08/31 06:05:29;;;;;;;6.25;1.63;;;;;;;20.26;65.05;100388.69;5102456;28;20051;-83
2023/08/31 06:08:22;;;;;;;5.85;1.13;;;;;;;20.25;64.52;100389.06;5100569;28;20060;-84
2023/08/31 06:11:16;;;;;;;5.75;1.65;;;;;;;20.30;64.57;100394.22;5107130;28;20517;-84
2023/08/31 06:14:11;;;;;;;13.27;2.13;;;;;;;20.30;65.30;100403.28;5108504;28;20043;-84
2023/08/31 06:17:03;;;;;;;10.10;2.47;;;;;;;20.34;65.64;100406.88;5101917;28;20058;-83
2023/08/31 06:19:56;;;;;;;3.25;1.90;;;;;;;19.81;67.94;100412.09;5096351;28;20042;-81
2023/08/31 06:22:51;;;;;;;7.50;1.27;;;;;;;19.33;70.30;100424.31;5103364;28;20620;-82
2023/08/31 06:25:45;;;;;;;7.13;1.70;;;;;;;19.56;71.05;100425.72;5096001;28;20060;-82
2023/08/31 06:28:40;;;;;;;5.95;1.73;;;;;;;19.44;72.99;100431.53;5108411;28;20047;-81
2023/08/31 06:31:32;;;;;;;6.32;1.83;;;;;;;19.18;74.11;100437.19;5097453;28;20051;-81
2023/08/31 06:34:25;;;;;;;13.02;2.30;;;;;;;19.07;74.05;100444.56;5107396;28;20051;-79
2023/08/31 06:37:19;;;;;;;7.82;1.80;;;;;;;18.96;74.53;100446.41;5110129;28;20039;-80
2023/08/31 06:40:11;;;;;;;3.88;1.75;;;;;;;19.20;73.30;100443.91;5103115;28;20047;-79
2023/08/31 06:43:03;;;;;;;26.85;2.35;;;;;;;19.53;72.29;100456.03;5104964;28;20517;-78
2023/08/31 06:45:58;;;;;;;8.27;1.73;;;;;;;19.86;70.24;100458.63;5088284;28;20126;-78
2023/08/31 06:48:53;;;;;;;5.82;1.90;;;;;;;19.89;69.89;100466.16;5078909;28;20047;-78
2023/08/31 06:51:47;;;;;;;3.20;1.73;;;;;;;19.72;69.54;100471.53;5093884;28;20043;-78
2023/08/31 06:54:42;;;;;;;3.90;1.45;;;;;;;20.04;69.25;100480.84;5098680;28;20114;-78
2023/08/31 06:57:37;;;;;;;6.05;1.60;;;;;;;20.02;69.39;100481.22;5101466;28;20332;-79
2023/08/31 07:00:31;;;;;;;1.70;1.50;;;;;;;20.22;69.02;100480.94;5101300;28;20485;-79
2023/08/31 07:03:26;;;;;;;6.75;2.00;;;;;;;20.28;68.51;100487.69;5093803;28;20039;-78
2023/08/31 07:06:21;;;;;;;5.13;1.70;;;;;;;20.63;66.08;100496.19;5095596;28;20067;-78
2023/08/31 07:09:13;;;;;;;6.13;1.70;;;;;;;21.06;64.81;100501.88;5099637;28;20056;-78
2023/08/31 07:12:07;;;;;;;6.05;2.22;;;;;;;22.39;60.81;100503.09;5102281;28;20054;-79
2023/08/31 07:15:00;;;;;;;6.40;2.58;;;;;;;21.25;62.69;100501.53;5103708;28;20407;-78
2023/08/31 07:17:55;;;;;;;6.90;3.20;;;;;;;20.93;65.54;100506.94;5099270;28;20035;-78
2023/08/31 07:20:50;;;;;;;5.80;2.25;;;;;;;22.70;59.08;100517.25;5106545;28;20057;-78
2023/08/31 07:23:45;;;;;;;4.05;1.88;;;;;;;22.09;58.36;100511.88;5105576;28;20043;-79
2023/08/31 07:26:39;;;;;;;2.42;1.33;;;;;;;22.40;57.94;100526.06;5106773;28;20043;-82
2023/08/31 07:29:34;;;;;;;2.05;1.60;;;;;;;20.91;62.45;100525.91;5089048;28;20059;-78
2023/08/31 07:32:23;;;;;;;4.47;1.58;;;;;;;20.92;62.95;100538.56;5099984;28;20051;-78
2023/08/31 07:35:17;;;;;;;2.50;1.20;;;;;;;21.23;61.72;100535.09;5099025;28;20288;-78
2023/08/31 07:38:12;;;;;;;2.33;1.30;;;;;;;24.97;50.78;100538.44;5096093;28;20043;-79
2023/08/31 07:41:07;;;;;;;4.07;1.48;;;;;;;26.62;45.58;100542.50;5096054;28;20039;-79
2023/08/31 07:44:02;;;;;;;3.33;0.80;;;;;;;27.87;42.93;100551.75;5092952;28;20055;-79
2023/08/31 07:46:57;;;;;;;3.95;1.40;;;;;;;29.73;38.10;100558.06;5096907;28;20043;-81
2023/08/31 07:49:51;;;;;;;2.13;0.80;;;;;;;30.35;35.95;100564.00;5085655;28;20050;-84
2023/08/31 07:52:45;;;;;;;4.13;1.08;;;;;;;31.67;33.47;100566.28;5096699;28;20047;-84
2023/08/31 07:55:40;;;;;;;5.25;1.35;;;;;;;32.02;32.23;100564.00;5115983;28;20050;-83
2023/08/31 07:58:27;;;;;;;;;;;;;;;32.35;31.22;100575.50;5110622;28;20047;-84
2023/08/31 08:01:22;;;;;;;5.18;0.90;;;;;;;32.40;31.23;100577.69;5114472;28;19912;-84
2023/08/31 08:04:14;;;;;;;;;;;;;;;32.22;32.11;100578.44;5108095;28;20051;-84
2023/08/31 08:07:06;;;;;;;2.58;0.88;;;;;;;34.49;28.86;100576.19;5110067;28;19916;-84
2023/08/31 08:10:01;;;;;;;3.47;0.95;;;;;;;35.99;26.28;100590.84;5104605;28;20402;-83
2023/08/31 08:12:55;;;;;;;5.18;1.20;;;;;;;32.65;29.63;100589.47;5100215;28;20043;-83
2023/08/31 08:15:45;;;;;;;6.47;1.35;;;;;;;28.45;37.12;100583.41;5124962;28;20050;-84
2023/08/31 08:18:40;;;;;;;1.75;1.15;;;;;;;28.99;36.85;100586.34;5106511;28;20047;-83
2023/08/31 08:21:32;;;;;;;3.63;1.02;;;;;;;31.11;33.77;100598.16;5111906;28;20051;-84
2023/08/31 08:24:29;;;;;;;1.23;0.80;;;;;;;31.70;32.99;100597.06;5129189;27;20365;-84
2023/08/31 08:27:23;;;;;;;6.25;1.10;;;;;;;32.84;30.87;100601.47;5122963;27;20055;-84
2023/08/31 08:30:18;;;;;;;1.00;0.77;;;;;;;32.03;32.49;100604.97;5122145;28;20517;-83
2023/08/31 08:33:13;;;;;;;2.17;1.10;;;;;;;35.56;26.90;100603.81;5123964;28;20050;-83
2023/08/31 08:36:05;;;;;;;3.60;1.25;;;;;;;36.89;24.73;100618.25;5121947;28;20042;-83
2023/08/31 08:39:00;;;;;;;2.22;0.90;;;;;;;36.49;25.45;100612.63;5127577;28;20046;-82
2023/08/31 08:41:53;;;;;;;2.00;1.30;;;;;;;25.49;43.54;100586.22;5116682;28;20039;-84
2023/08/31 08:44:48;;;;;;;1.50;1.08;;;;;;;33.83;29.78;100599.63;5125569;28;20047;-82
2023/08/31 08:47:44;;;;;;;4.35;1.08;;;;;;;32.32;31.27;100604.56;5133632;28;20308;-82
2023/08/31 08:50:37;;;;;;;4.38;1.00;;;;;;;35.38;26.71;100604.06;5129979;27;20042;-82
2023/08/31 08:53:32;;;;;;;5.82;0.75;;;;;;;34.80;26.74;100604.00;5133878;27;20133;-82
2023/08/31 08:56:27;;;;;;;2.83;0.73;;;;;;;36.73;24.24;100610.34;5127293;28;20505;-82
2023/08/31 08:59:21;;;;;;;1.10;0.70;;;;;;;33.30;28.85;100619.13;5118406;28;20047;-81
2023/08/31 09:02:13;;;;;;;7.07;1.10;;;;;;;36.69;24.55;100624.72;5122149;28;20505;-82
2023/08/31 09:05:08;;;;;;;1.88;0.63;;;;;;;40.40;20.39;100628.78;5112144;28;20047;-82
2023/08/31 09:08:15;;;;;;;9.13;1.13;;;;;;;40.38;19.12;100642.03;5114033;28;20047;-82
2023/08/31 09:11:07;;;;;;;2.47;0.60;;;;;;;37.41;23.57;100624.69;5112588;28;20532;-82
2023/08/31 09:14:02;;;;;;;2.08;0.93;;;;;;;32.84;30.05;100617.59;5117007;27;20039;-82
2023/08/31 09:16:56;;;;;;;1.65;1.20;;;;;;;35.42;25.13;100624.44;5114049;28;20047;-84
2023/08/31 09:19:57;;;;;;;0.82;0.52;;;;;;;37.02;22.78;100618.66;5116497;28;20038;-86
2023/08/31 09:22:52;;;;;;;7.03;1.27;;;;;;;33.74;27.75;100608.16;5109723;28;20047;-82
2023/08/31 09:25:52;;;;;;;5.78;1.73;;;;;;;37.08;23.53;100608.13;5115334;28;20039;-85
2023/08/31 09:28:45;;;;;;;2.58;1.20;;;;;;;37.84;22.34;100619.88;5113824;28;20042;-84
2023/08/31 09:31:40;;;;;;;3.35;0.85;;;;;;;41.93;18.53;100613.69;5118597;28;20050;-84
2023/08/31 09:34:39;;;;;;;3.20;0.90;;;;;;;34.98;25.88;100615.94;5122122;28;20409;-86
2023/08/31 09:37:31;;;;;;;1.52;1.02;;;;;;;40.40;19.56;100620.25;5111968;28;20052;-85
2023/08/31 09:40:23;;;;;;;2.38;1.33;;;;;;;39.47;20.68;100622.75;5117324;28;20043;-85
2023/08/31 09:43:26;;;;;;;2.28;1.20;;;;;;;41.10;18.98;100630.25;5116427;28;20040;-87
2023/08/31 09:46:21;;;;;;;7.28;1.15;;;;;;;42.48;17.43;100635.13;5112053;28;20046;-83
2023/08/31 09:49:13;;;;;;;5.28;1.00;;;;;;;42.97;17.11;100624.34;5119050;28;20066;-83
2023/08/31 09:52:07;;;;;;;6.53;0.90;;;;;;;44.74;16.35;100636.69;5112608;28;20524;-86
2023/08/31 09:55:04;;;;;;;0.88;0.70;;;;;;;46.55;14.08;100645.28;5117979;27;20043;-84
2023/08/31 09:58:00;;;;;;;1.35;1.00;;;;;;;45.39;14.96;100640.63;5108692;28;20042;-86
2023/08/31 10:00:53;;;;;;;2.08;1.10;;;;;;;46.09;14.51;100638.50;5108592;28;20042;-82
2023/08/31 10:03:48;;;;;;;4.30;0.80;;;;;;;45.73;14.63;100629.03;5119668;28;20047;-85
2023/08/31 10:06:43;;;;;;;14.23;3.85;;;;;;;45.25;14.45;100628.44;5113723;28;20043;-85
2023/08/31 10:09:37;;;;;;;64.47;13.75;;;;;;;46.67;13.88;100626.34;5115149;28;20051;-84
2023/08/31 10:12:32;;;;;;;19.70;4.43;;;;;;;44.88;14.77;100628.81;5120310;28;20051;-85
2023/08/31 10:15:33;;;;;;;5.78;2.40;;;;;;;45.21;15.45;100624.38;5097611;28;20129;-85
2023/08/31 10:18:36;;;;;;;10.82;2.08;;;;;;;46.25;14.42;100625.75;5114158;28;20042;-85
2023/08/31 10:21:28;;;;;;;1.75;0.90;;;;;;;46.26;14.22;100635.16;5125762;27;20050;-85
2023/08/31 10:24:41;;;;;;;2.78;1.00;;;;;;;47.63;13.32;100633.44;5120449;28;20051;-86
2023/08/31 10:27:41;;;;;;;2.45;0.60;;;;;;;47.79;12.97;100625.53;5113504;28;20047;-85
2023/08/31 10:30:36;;;;;;;1.92;0.65;;;;;;;48.32;12.63;100625.38;5102734;28;20453;-84
2023/08/31 10:33:33;;;;;;;0.93;0.57;;;;;;;48.85;11.99;100625.16;5103233;28;20158;-85
2023/08/31 10:36:36;;;;;;;5.57;1.02;;;;;;;48.07;12.58;100631.03;5111188;27;20394;-84
2023/08/31 10:39:40;;;;;;;6.10;0.73;;;;;;;45.39;14.75;100615.53;5112749;28;20054;-85
2023/08/31 10:42:35;;;;;;;4.32;0.88;;;;;;;47.20;13.83;100614.94;5112433;27;20062;-84
2023/08/31 10:45:30;;;;;;;2.42;1.00;;;;;;;46.17;13.92;100601.94;5114528;27;20126;-85
2023/08/31 10:48:25;;;;;;;2.20;0.95;;;;;;;43.04;16.85;100601.56;5113529;27;20051;-85
2023/08/31 10:51:20;;;;;;;3.97;1.23;;;;;;;40.96;18.54;100599.97;5113041;27;20062;-85
2023/08/31 10:54:21;;;;;;;1.20;1.02;;;;;;;45.62;14.67;100609.22;5125551;27;20051;-84
2023/08/31 10:57:16;;;;;;;2.10;0.60;;;;;;;46.15;14.44;100616.09;5103950;27;20046;-85
2023/08/31 11:00:11;;;;;;;4.50;0.68;;;;;;;48.38;12.74;100614.41;5133162;27;20030;-85
2023/08/31 11:03:07;;;;;;;2.15;0.63;;;;;;;44.38;15.69;100602.00;5097965;28;20051;-84
2023/08/31 11:05:59;;;;;;;1.58;0.93;;;;;;;44.36;15.97;100601.78;5130213;27;20043;-84
2023/08/31 11:08:51;;;;;;;4.80;0.93;;;;;;;41.33;18.98;100590.88;5119244;27;20051;-85
2023/08/31 11:11:46;;;;;;;5.43;0.85;;;;;;;37.21;23.34;100583.00;5133597;27;20066;-86
2023/08/31 11:14:41;;;;;;;3.20;0.73;;;;;;;43.99;16.72;100597.03;5135607;27;20038;-86
2023/08/31 11:17:35;;;;;;;4.65;0.82;;;;;;;44.92;15.75;100601.28;5127820;27;20047;-86
2023/08/31 11:20:32;;;;;;;2.42;0.50;;;;;;;38.45;21.69;100585.34;5097051;28;20050;-84
2023/08/31 11:23:24;;;;;;;5.28;0.88;;;;;;;42.90;17.26;100591.38;5124965;28;20057;-87
2023/08/31 11:26:19;;;;;;;4.30;1.27;;;;;;;37.91;22.17;100582.47;5125058;28;20050;-87
2023/08/31 11:29:14;;;;;;;9.35;0.60;;;;;;;37.64;22.92;100588.78;5124284;28;20413;-84
2023/08/31 11:32:06;;;;;;;10.02;1.10;;;;;;;41.26;19.19;100589.38;5113887;28;20047;-85
2023/08/31 11:35:01;;;;;;;1.98;0.73;;;;;;;43.20;17.58;100590.41;5120431;28;20059;-84
2023/08/31 11:38:00;;;;;;;2.08;0.70;;;;;;;39.58;20.65;100585.72;5124159;28;20533;-86
2023/08/31 11:40:58;;;;;;;4.13;0.80;;;;;;;36.13;24.90;100577.91;5119241;28;20054;-85
2023/08/31 11:43:52;;;;;;;3.83;0.93;;;;;;;34.78;26.91;100578.28;5125833;28;20058;-85
2023/08/31 11:46:48;;;;;;;2.20;0.70;;;;;;;42.45;18.99;100596.97;5108374;28;20043;-84
2023/08/31 11:49:44;;;;;;;14.73;2.97;;;;;;;44.39;16.12;100594.94;5122329;28;20168;-85
2023/08/31 11:52:39;;;;;;;7.35;1.52;;;;;;;40.85;20.05;100597.19;5121720;28;20042;-85
2023/08/31 11:55:31;;;;;;;2.72;1.00;;;;;;;42.72;19.11;100597.88;5118530;28;20043;-87
2023/08/31 11:58:28;;;;;;;6.75;1.05;;;;;;;46.35;14.88;100600.09;5125510;28;20038;-87
2023/08/31 12:01:25;;;;;;;3.00;0.90;;;;;;;44.89;16.08;100595.91;5116983;28;20051;-84
2023/08/31 12:04:16;;;;;;;6.47;0.98;;;;;;;48.99;12.93;100594.63;5126646;28;20047;-83
2023/08/31 12:07:11;;;;;;;8.05;1.10;;;;;;;44.54;16.02;100583.63;5123635;28;20054;-83
2023/08/31 12:10:09;;;;;;;98.57;21.98;;;;;;;37.38;23.77;100566.13;5118608;28;20046;-83
2023/08/31 12:13:12;;;;;;;41.08;11.13;;;;;;;34.03;28.56;100562.38;5123542;27;20039;-83
2023/08/31 12:16:01;;;;;;;40.92;8.18;;;;;;;32.15;31.52;100551.38;5121003;27;20043;-84
2023/08/31 12:19:00;;;;;;;24.55;8.18;;;;;;;31.41;33.09;100555.22;5121448;28;20607;-85
2023/08/31 12:21:55;;;;;;;23.17;6.80;;;;;;;31.00;33.36;100547.19;5106969;28;20050;-85
2023/08/31 12:24:49;;;;;;;42.70;10.43;;;;;;;30.27;35.02;100555.06;5121217;28;20042;-85
2023/08/31 12:27:43;;;;;;;26.90;7.53;;;;;;;29.74;35.91;100548.41;5117428;28;20490;-84
2023/08/31 12:30:38;;;;;;;47.65;13.07;;;;;;;29.32;36.58;100547.75;5108388;28;20419;-85
2023/08/31 12:33:28;;;;;;;28.75;8.63;;;;;;;29.12;37.31;100539.53;5119919;28;20031;-82
2023/08/31 12:36:24;;;;;;;27.45;8.48;;;;;;;28.96;37.47;100544.44;5119868;28;20046;-82
2023/08/31 12:39:18;;;;;;;18.75;6.22;;;;;;;28.99;37.61;100537.94;5122914;28;20039;-83
2023/08/31 12:42:11;;;;;;;11.52;3.58;;;;;;;28.76;38.27;100545.41;5098910;28;20556;-82
2023/08/31 12:45:01;;;;;;;4.85;2.13;;;;;;;28.60;38.61;100547.47;5117547;28;20043;-82
2023/08/31 12:47:55;;;;;;;16.73;4.32;;;;;;;28.44;38.82;100546.25;5121872;28;20042;-82
2023/08/31 12:50:47;;;;;;;3.55;1.88;;;;;;;28.30;38.94;100554.25;5119737;28;20042;-82
2023/08/31 12:53:45;;;;;;;5.15;1.90;;;;;;;28.19;39.29;100543.34;5109849;28;20047;-80
2023/08/31 12:56:40;;;;;;;6.70;1.90;;;;;;;28.14;39.53;100541.09;5130524;27;20035;-81
2023/08/31 12:59:32;;;;;;;7.47;2.70;;;;;;;28.06;39.69;100537.66;5125513;28;20046;-81
2023/08/31 13:02:27;;;;;;;10.98;3.63;;;;;;;28.01;39.25;100532.59;5133114;28;20041;-83
2023/08/31 13:05:19;;;;;;;4.82;2.03;;;;;;;27.91;39.85;100533.66;5130869;28;20047;-83
2023/08/31 13:08:12;;;;;;;7.57;2.25;;;;;;;27.81;39.88;100537.53;5137612;28;20046;-83
2023/08/31 13:11:03;;;;;;;9.55;2.20;;;;;;;27.76;40.57;100537.25;5117655;28;20047;-82
2023/08/31 13:13:55;;;;;;;1.70;0.73;;;;;;;27.62;40.57;100533.59;5135390;28;20042;-83
2023/08/31 13:16:47;;;;;;;;;;;;;;;27.38;40.87;100528.56;5125896;28;20038;-81
2023/08/31 13:19:40;;;;;;;2.17;0.60;;;;;;;27.43;40.71;100528.06;5119404;28;19916;-82
2023/08/31 13:22:32;;;;;;;3.75;1.00;;;;;;;27.57;40.56;100524.94;5136315;28;20047;-82
2023/08/31 13:25:24;;;;;;;3.00;1.27;;;;;;;27.60;40.49;100529.66;5130398;28;20043;-82
2023/08/31 13:28:16;;;;;;;1.98;1.40;;;;;;;27.61;40.48;100529.22;5118326;28;20047;-81
2023/08/31 13:31:11;;;;;;;9.73;2.03;;;;;;;27.37;41.21;100525.00;5109692;28;20043;-81
2023/08/31 13:34:03;;;;;;;;;;;;;;;27.14;41.52;100531.47;5111109;28;20055;-82